Time;durP1;ratioP1;P1;durP2;ratioP2;P2;SDS_P1;SDS_P2;PMS_P1;PMS_P2;Temp;Humidity;BMP_temperature;BMP_pressure;BME280_temperature;BME280_humidity;BME280_pressure;Samples;Min_cycle;Max_cycle;Signal;HPM_P1;HPM_P2
2021/12/05 00:23:40;;;;;;;10.87;1.90;;;;;;;;;;5052151;28;20481;-71
2021/12/05 00:26:11;;;;;;;2.33;1.37;;;;;;;;;;5073814;28;20427;-72
2021/12/05 00:31:40;;;;;;;3.77;1.70;;;;;;;;;;5070237;28;21006;-72
2021/12/05 00:48:41;;;;;;;7.10;1.90;;;;;;;;;;5072226;28;20433;-72
2021/12/05 00:51:40;;;;;;;2.57;1.20;;;;;;;;;;5068428;28;20520;-72
2021/12/05 00:59:57;;;;;;;3.53;2.20;;;;;;;;;;5059419;28;20437;-72
2021/12/05 01:02:37;;;;;;;6.30;1.10;;;;;;;;;;5070028;28;20469;-72
2021/12/05 01:10:54;;;;;;;7.93;1.87;;;;;;;;;;5057922;28;20428;-72
2021/12/05 01:13:36;;;;;;;2.47;1.40;;;;;;;;;;5053293;28;20466;-72
2021/12/05 01:16:06;;;;;;;2.40;1.30;;;;;;;;;;5060376;28;20434;-73
2021/12/05 01:18:34;;;;;;;2.93;1.53;;;;;;;;;;5051568;28;20538;-73
2021/12/05 01:21:07;;;;;;;2.17;1.30;;;;;;;;;;5067544;28;20445;-72
2021/12/05 01:23:42;;;;;;;3.43;1.33;;;;;;;;;;5071274;28;20476;-73
2021/12/05 01:26:14;;;;;;;1.93;1.30;;;;;;;;;;5055125;28;20985;-72
2021/12/05 01:28:57;;;;;;;7.13;1.60;;;;;;;;;;5066285;28;20572;-72
2021/12/05 01:31:33;;;;;;;3.60;1.50;;;;;;;;;;5069995;28;20955;-73
2021/12/05 01:34:16;;;;;;;4.13;1.13;;;;;;;;;;5069991;28;20494;-72
2021/12/05 01:36:55;;;;;;;2.03;1.17;;;;;;;;;;5069809;28;20800;-74
2021/12/05 01:39:36;;;;;;;1.50;1.13;;;;;;;;;;5064035;28;20446;-72
2021/12/05 01:48:30;;;;;;;1.93;1.30;;;;;;;;;;5070862;28;20463;-72
2021/12/05 01:54:18;;;;;;;2.37;1.53;;;;;;;;;;5065609;28;20530;-72
2021/12/05 02:02:50;;;;;;;7.50;2.37;;;;;;;;;;5014961;28;20557;-72
2021/12/05 02:11:06;;;;;;;4.83;1.50;;;;;;;;;;5040012;28;20430;-72
2021/12/05 02:16:34;;;;;;;3.73;1.50;;;;;;;;;;5050778;28;20405;-70
2021/12/05 02:35:52;;;;;;;1.20;1.10;;;;;;;;;;5050286;28;20426;-72
2021/12/05 02:41:13;;;;;;;2.80;1.10;;;;;;;;;;5070910;28;20393;-72
2021/12/05 02:43:44;;;;;;;2.50;1.17;;;;;;;;;;5069742;28;20500;-72
2021/12/05 02:46:13;;;;;;;1.47;0.80;;;;;;;;;;5070708;28;20913;-72
2021/12/05 02:48:40;;;;;;;1.83;1.20;;;;;;;;;;5066285;28;20446;-72
2021/12/05 02:51:09;;;;;;;4.10;1.33;;;;;;;;;;5070626;28;20509;-72
2021/12/05 02:53:41;;;;;;;1.37;1.10;;;;;;;;;;5074172;28;20445;-72
2021/12/05 02:56:09;;;;;;;1.40;1.00;;;;;;;;;;5074382;28;20430;-72
2021/12/05 02:58:44;;;;;;;1.90;1.20;;;;;;;;;;5072890;28;20498;-72
2021/12/05 03:01:17;;;;;;;4.67;1.23;;;;;;;;;;5059258;28;20445;-72
2021/12/05 03:03:44;;;;;;;3.37;1.13;;;;;;;;;;5068800;28;20556;-72
2021/12/05 03:06:16;;;;;;;2.00;1.00;;;;;;;;;;5064872;28;20521;-73
2021/12/05 03:08:45;;;;;;;2.20;1.00;;;;;;;;;;5064468;28;20434;-72
2021/12/05 03:11:12;;;;;;;1.80;1.30;;;;;;;;;;5076898;28;20419;-72
2021/12/05 03:13:41;;;;;;;2.87;0.73;;;;;;;;;;5072611;28;20481;-72
2021/12/05 03:16:09;;;;;;;3.57;1.20;;;;;;;;;;5057866;28;20465;-72
2021/12/05 03:18:36;;;;;;;3.30;1.50;;;;;;;;;;5054168;28;20529;-72
2021/12/05 03:21:04;;;;;;;2.20;1.13;;;;;;;;;;5068251;28;20785;-72
2021/12/05 03:23:32;;;;;;;1.93;1.60;;;;;;;;;;5073225;28;20475;-72
2021/12/05 03:26:00;;;;;;;5.20;1.50;;;;;;;;;;5073626;28;20441;-72
2021/12/05 03:28:27;;;;;;;1.83;0.93;;;;;;;;;;5073221;28;20445;-71
2021/12/05 03:30:54;;;;;;;2.93;0.90;;;;;;;;;;5072428;28;21010;-72
2021/12/05 03:33:22;;;;;;;2.83;1.37;;;;;;;;;;5056487;28;20457;-72
2021/12/05 03:35:49;;;;;;;4.83;1.50;;;;;;;;;;5070342;28;20937;-72
2021/12/05 03:38:16;;;;;;;4.90;1.70;;;;;;;;;;5073081;28;20442;-72
2021/12/05 03:40:45;;;;;;;1.30;0.80;;;;;;;;;;5072721;28;20452;-72
2021/12/05 03:43:15;;;;;;;3.80;1.03;;;;;;;;;;5073539;28;20500;-72
2021/12/05 03:45:44;;;;;;;2.33;1.40;;;;;;;;;;5070738;28;20883;-72
2021/12/05 03:48:12;;;;;;;2.80;1.27;;;;;;;;;;5053477;28;20446;-72
2021/12/05 03:50:39;;;;;;;2.50;1.20;;;;;;;;;;5065006;28;20468;-72
2021/12/05 03:53:07;;;;;;;1.50;1.00;;;;;;;;;;5071943;28;20792;-72
2021/12/05 03:55:36;;;;;;;2.00;1.90;;;;;;;;;;5072909;28;20441;-71
2021/12/05 03:58:03;;;;;;;3.17;1.00;;;;;;;;;;5066207;28;20437;-72
2021/12/05 04:00:33;;;;;;;3.23;1.60;;;;;;;;;;5071637;28;20480;-72
2021/12/05 04:03:02;;;;;;;3.20;2.00;;;;;;;;;;5068441;28;20469;-72
2021/12/05 04:05:31;;;;;;;1.30;1.03;;;;;;;;;;5061543;28;20453;-72
2021/12/05 04:07:59;;;;;;;6.60;2.03;;;;;;;;;;5073463;28;20901;-72
2021/12/05 04:10:27;;;;;;;5.53;2.00;;;;;;;;;;5070219;28;20456;-72
2021/12/05 04:12:54;;;;;;;4.07;1.63;;;;;;;;;;5053873;28;20519;-72
2021/12/05 04:15:22;;;;;;;4.10;2.03;;;;;;;;;;5064238;28;20914;-72
2021/12/05 04:17:50;;;;;;;2.47;1.57;;;;;;;;;;5072136;28;20932;-72
2021/12/05 04:20:18;;;;;;;2.73;1.20;;;;;;;;;;5069059;28;20481;-72
2021/12/05 04:22:45;;;;;;;7.57;1.33;;;;;;;;;;5071727;28;20822;-72
2021/12/05 04:25:13;;;;;;;1.97;1.40;;;;;;;;;;5072509;28;20454;-72
2021/12/05 04:27:42;;;;;;;4.50;1.73;;;;;;;;;;5064348;28;20452;-72
2021/12/05 04:30:11;;;;;;;2.93;1.30;;;;;;;;;;5052925;28;20492;-72
2021/12/05 04:32:38;;;;;;;4.80;0.97;;;;;;;;;;5064850;28;20512;-72
2021/12/05 04:35:07;;;;;;;2.93;1.00;;;;;;;;;;5063945;28;20459;-73
2021/12/05 04:37:34;;;;;;;2.20;1.30;;;;;;;;;;5052286;28;20437;-72
2021/12/05 04:40:02;;;;;;;1.67;1.00;;;;;;;;;;5060312;28;20442;-72
2021/12/05 04:42:29;;;;;;;3.37;1.47;;;;;;;;;;5071593;28;20457;-72
2021/12/05 04:44:56;;;;;;;1.60;1.03;;;;;;;;;;5071065;28;20481;-71
2021/12/05 04:47:24;;;;;;;1.43;1.00;;;;;;;;;;5072296;28;20445;-72
2021/12/05 04:49:51;;;;;;;4.60;1.17;;;;;;;;;;5064608;28;20920;-72
2021/12/05 04:52:19;;;;;;;1.53;0.90;;;;;;;;;;5060361;28;20442;-72
2021/12/05 04:54:47;;;;;;;1.80;1.10;;;;;;;;;;5052097;28;20482;-72
2021/12/05 04:57:14;;;;;;;1.47;1.10;;;;;;;;;;5052580;28;20778;-72
2021/12/05 04:59:46;;;;;;;2.00;1.00;;;;;;;;;;5051590;28;21057;-72
2021/12/05 05:02:13;;;;;;;3.47;1.27;;;;;;;;;;5060509;28;20464;-72
2021/12/05 05:04:43;;;;;;;5.37;1.30;;;;;;;;;;5061612;28;20477;-72
2021/12/05 05:07:16;;;;;;;1.27;0.83;;;;;;;;;;5072677;28;20465;-71
2021/12/05 05:09:45;;;;;;;0.93;0.80;;;;;;;;;;5070127;28;20460;-73
2021/12/05 05:12:12;;;;;;;5.73;1.97;;;;;;;;;;5058206;28;20446;-72
2021/12/05 05:14:39;;;;;;;4.60;1.30;;;;;;;;;;5062585;28;20452;-72
2021/12/05 05:17:07;;;;;;;2.60;1.10;;;;;;;;;;5071632;28;20995;-72
2021/12/05 05:19:38;;;;;;;1.83;1.03;;;;;;;;;;5055149;28;20905;-72
2021/12/05 05:22:11;;;;;;;2.20;1.10;;;;;;;;;;5060802;28;20488;-71
2021/12/05 05:27:47;;;;;;;1.30;0.90;;;;;;;;;;5050036;28;20446;-72
2021/12/05 05:44:14;;;;;;;3.67;1.17;;;;;;;;;;5039018;28;20575;-72
2021/12/05 05:46:55;;;;;;;3.27;1.10;;;;;;;;;;5064638;28;20522;-72
2021/12/05 05:49:30;;;;;;;2.90;0.90;;;;;;;;;;5053972;28;20458;-72
2021/12/05 05:51:57;;;;;;;4.77;1.40;;;;;;;;;;5067387;28;20446;-72
2021/12/05 05:54:25;;;;;;;1.90;1.00;;;;;;;;;;5072461;28;20484;-72
2021/12/05 05:56:56;;;;;;;1.37;0.83;;;;;;;;;;5074045;28;20473;-71
2021/12/05 05:59:28;;;;;;;0.70;0.70;;;;;;;;;;5054287;28;20423;-72
2021/12/05 06:04:39;;;;;;;0.80;0.80;;;;;;;;;;5056057;28;20469;-72
2021/12/05 06:07:07;;;;;;;4.17;1.23;;;;;;;;;;5060412;28;20549;-71
2021/12/05 06:09:35;;;;;;;4.27;1.30;;;;;;;;;;5058511;28;20445;-72
2021/12/05 06:12:02;;;;;;;1.30;0.70;;;;;;;;;;5071304;28;20447;-72
2021/12/05 06:14:31;;;;;;;1.40;1.30;;;;;;;;;;5061322;28;20476;-72
2021/12/05 06:16:58;;;;;;;3.40;1.20;;;;;;;;;;5050764;28;20444;-72
2021/12/05 06:19:25;;;;;;;1.73;1.10;;;;;;;;;;5053674;28;20873;-72
2021/12/05 06:21:53;;;;;;;2.93;1.20;;;;;;;;;;5068149;28;20449;-72
2021/12/05 06:24:23;;;;;;;6.03;1.30;;;;;;;;;;5064014;28;20480;-72
2021/12/05 06:26:50;;;;;;;2.27;1.20;;;;;;;;;;5074933;28;20517;-72
2021/12/05 06:29:20;;;;;;;2.80;1.40;;;;;;;;;;5057767;28;20460;-72
2021/12/05 06:32:03;;;;;;;4.50;2.40;;;;;;;;;;5054629;28;20807;-73
2021/12/05 06:37:32;;;;;;;1.73;1.20;;;;;;;;;;5055046;28;20398;-72
2021/12/05 06:40:21;;;;;;;1.77;1.17;;;;;;;;;;5060372;28;20444;-72
2021/12/05 06:42:55;;;;;;;4.10;1.10;;;;;;;;;;5057990;28;20461;-72
2021/12/05 06:48:08;;;;;;;2.83;1.10;;;;;;;;;;5067286;28;20522;-71
2021/12/05 06:50:35;;;;;;;5.40;1.50;;;;;;;;;;5057089;28;20522;-71
2021/12/05 06:53:06;;;;;;;1.33;0.90;;;;;;;;;;5072450;28;20520;-71
2021/12/05 06:55:33;;;;;;;3.43;1.90;;;;;;;;;;5058139;28;20894;-72
2021/12/05 06:58:00;;;;;;;1.80;1.13;;;;;;;;;;5054927;28;20453;-72
2021/12/05 07:00:28;;;;;;;1.33;0.93;;;;;;;;;;5067094;28;20439;-72
2021/12/05 07:02:56;;;;;;;2.27;1.07;;;;;;;;;;5074020;28;20442;-71
2021/12/05 07:05:40;;;;;;;2.30;1.10;;;;;;;;;;5072858;28;20503;-72
2021/12/05 07:08:09;;;;;;;1.93;0.97;;;;;;;;;;5074966;28;20433;-72
2021/12/05 07:10:43;;;;;;;2.60;1.40;;;;;;;;;;5073472;28;20452;-71
2021/12/05 07:15:59;;;;;;;2.27;1.13;;;;;;;;;;5074029;28;20410;-74
2021/12/05 07:21:16;;;;;;;1.83;1.10;;;;;;;;;;5058949;28;21108;-73
2021/12/05 07:23:54;;;;;;;1.40;0.93;;;;;;;;;;5073466;28;20812;-72
2021/12/05 07:26:28;;;;;;;1.27;0.80;;;;;;;;;;5074139;28;20445;-72
2021/12/05 07:42:42;;;;;;;2.67;1.63;;;;;;;;;;5069230;28;20553;-76
2021/12/05 07:45:12;;;;;;;3.30;1.50;;;;;;;;;;5054007;28;20466;-76
2021/12/05 07:47:43;;;;;;;1.73;1.37;;;5.90;99.90;;;;;;5066821;28;20856;-74
2021/12/05 07:50:11;;;;;;;2.03;1.57;;;3.00;99.90;;;;;;5065239;28;20450;-73
2021/12/05 07:52:43;;;;;;;10.47;5.80;;;3.00;99.90;;;;;;5066809;28;20859;-73
2021/12/05 07:55:17;;;;;;;2.93;1.90;;;3.00;99.90;;;;;;5073556;28;20946;-70
2021/12/05 07:58:01;;;;;;;4.90;1.70;;;3.10;99.90;;;;;;5073148;28;20524;-72
2021/12/05 08:00:34;;;;;;;2.53;1.40;;;3.10;99.90;;;;;;5071919;28;20528;-72
2021/12/05 08:16:49;;;;;;;1.97;1.23;;;3.20;99.90;;;;;;5072458;28;20901;-74
2021/12/05 08:19:18;;;;;;;2.40;1.70;;;3.20;99.90;;;;;;5069669;28;20429;-72
2021/12/05 08:21:45;;;;;;;2.63;1.23;;;3.20;99.90;;;;;;5059196;28;20540;-71
2021/12/05 08:24:14;;;;;;;3.40;1.47;;;3.30;99.90;;;;;;5073174;28;20915;-69
2021/12/05 08:26:42;;;;;;;3.97;1.63;;;3.20;99.90;;;;;;5071915;28;20451;-71
2021/12/05 08:29:12;;;;;;;5.77;1.53;;;3.50;99.90;;;;;;5073234;28;20646;-71
2021/12/05 08:32:01;;;;;;;2.57;2.37;;;3.40;99.90;;;;;;5070954;28;20450;-66
2021/12/05 08:34:47;;;;;;;2.37;1.47;;;3.40;99.90;;;;;;5070688;28;20461;-70
2021/12/05 08:43:04;;;;;;;6.87;3.77;;;3.60;99.90;;;;;;5052634;28;20446;-69
2021/12/05 08:45:51;;;;;;;2.80;1.83;;;3.60;99.90;;;;;;5052573;28;20528;-69
2021/12/05 09:21:55;;;;;;;3.47;1.40;;;4.40;1.00;;;;;;5054735;28;20529;-70
2021/12/05 09:27:43;;;;;;;1.83;1.30;;;4.50;1.00;;;;;;5071131;28;20430;-74
2021/12/05 09:30:35;;;;;;;4.60;1.53;;;4.50;1.00;;;;;;5071600;28;20483;-73
2021/12/05 10:06:41;;;;;;;3.33;1.67;;;;;;;;;;5071126;28;20425;-72
2021/12/05 10:09:39;;;;;;;1.40;1.23;;;;;;;;;;5023636;28;20450;-72
2021/12/05 10:12:29;;;;;;;1.30;1.00;;;;;;;;;;5014530;28;20467;-72
2021/12/05 10:15:17;;;;;;;3.20;1.90;;;;;;;;;;5041702;28;20442;-73
2021/12/05 10:18:11;;;;;;;2.80;1.40;;;;;;;;;;5059571;28;20438;-72
2021/12/05 10:26:34;;;;;;;2.87;1.47;;;;;;;;;;5066420;28;20555;-71
2021/12/05 10:34:48;;;;;;;1.53;0.90;;;;;;;;;;5056823;28;20491;-72
2021/12/05 10:37:20;;;;;;;1.87;0.80;;;;;;;;;;5064859;28;20953;-71
2021/12/05 10:39:48;;;;;;;2.50;1.00;;;;;;;;;;5065677;28;20791;-69
2021/12/05 10:42:35;;;;;;;2.80;1.00;;;;;;;;;;5068485;28;20832;-72
2021/12/05 10:45:02;;;;;;;1.33;0.90;;;;;;;;;;5067512;28;20515;-72
2021/12/05 10:47:36;;;;;;;1.47;1.10;;;;;;;;;;5067208;28;20453;-72
2021/12/05 10:50:18;;;;;;;1.90;0.80;;;;;;;;;;5056041;28;20448;-72
2021/12/05 10:52:47;;;;;;;4.13;0.90;;;;;;;;;;5062663;28;20446;-72
2021/12/05 10:55:14;;;;;;;1.20;0.63;;;;;;;;;;5067571;28;20540;-72
2021/12/05 10:57:44;;;;;;;2.07;0.90;;;;;;;;;;5067064;28;20539;-71
2021/12/05 11:00:13;;;;;;;5.23;2.07;;;;;;;;;;5067499;28;20852;-72
2021/12/05 11:02:40;;;;;;;1.43;1.03;;;;;;;;;;5057078;28;20441;-70
2021/12/05 11:05:07;;;;;;;1.07;0.80;;;;;;;;;;5067373;28;21057;-72
2021/12/05 11:07:38;;;;;;;2.50;1.30;;;;;;;;;;5052131;28;20435;-71
2021/12/05 11:10:11;;;;;;;3.90;1.20;;;;;;;;;;5053293;28;20446;-72
2021/12/05 11:12:38;;;;;;;5.30;0.90;;;;;;;;;;5065975;28;20451;-71
2021/12/05 11:15:09;;;;;;;2.40;1.10;;;;;;;;;;5066079;28;20449;-72
2021/12/05 11:17:37;;;;;;;1.10;0.87;;;;;;;;;;5070274;28;20533;-70
2021/12/05 11:20:08;;;;;;;1.17;0.80;;;;;;;;;;5058951;28;20457;-73
2021/12/05 11:22:38;;;;;;;2.03;0.97;;;;;;;;;;5071950;28;20444;-72
2021/12/05 11:25:09;;;;;;;1.33;0.90;;;;;;;;;;5071305;28;20507;-73
2021/12/05 11:27:37;;;;;;;3.17;1.60;;;;;;;;;;5071464;28;20819;-73
2021/12/05 11:30:10;;;;;;;1.20;0.90;;;;;;;;;;5070945;28;20559;-72
2021/12/05 11:32:41;;;;;;;1.43;1.07;;;;;;;;;;5071267;28;20495;-73
2021/12/05 11:35:16;;;;;;;1.00;0.60;;;;;;;;;;5071057;28;20839;-71
2021/12/05 11:37:54;;;;;;;1.43;1.20;;;;;;;;;;5071012;28;20447;-71
2021/12/05 11:40:23;;;;;;;1.53;1.03;;;;;;;;;;5071113;28;20449;-72
2021/12/05 11:42:55;;;;;;;1.10;0.70;;;;;;;;;;5071031;28;20454;-72
2021/12/05 11:45:22;;;;;;;1.77;0.80;;;;;;;;;;5063109;28;20914;-72
2021/12/05 11:47:51;;;;;;;1.00;0.90;;;;;;;;;;5066826;28;20447;-73
2021/12/05 11:50:19;;;;;;;4.00;1.30;;;;;;;;;;5061783;28;20453;-73
2021/12/05 11:52:48;;;;;;;2.60;1.00;;;;;;;;;;5066358;28;21025;-72
2021/12/05 11:55:23;;;;;;;2.50;1.00;;;;;;;;;;5070396;28;20450;-72
2021/12/05 11:57:51;;;;;;;2.53;1.17;;;;;;;;;;5070914;28;20921;-73
2021/12/05 12:00:20;;;;;;;1.40;0.83;;;;;;;;;;5066021;28;20523;-71
2021/12/05 12:02:48;;;;;;;1.43;0.90;;;;;;;;;;5050835;28;20438;-74
2021/12/05 12:05:18;;;;;;;1.53;1.00;;;;;;;;;;5050225;28;20482;-73
2021/12/05 12:07:47;;;;;;;2.00;1.17;;;;;;;;;;5058771;28;20462;-70
2021/12/05 12:10:16;;;;;;;2.13;1.40;;;;;;;;;;5070112;28;20472;-71
2021/12/05 12:12:46;;;;;;;1.50;1.03;;;;;;;;;;5064769;28;21265;-72
2021/12/05 12:15:15;;;;;;;2.37;1.27;;;;;;;;;;5053334;28;20438;-72
2021/12/05 12:17:43;;;;;;;3.67;2.10;;;;;;;;;;5054434;28;20442;-72
2021/12/05 12:20:11;;;;;;;1.70;1.20;;;;;;;;;;5061203;28;20525;-71
2021/12/05 12:22:39;;;;;;;3.20;1.00;;;;;;;;;;5064750;28;20448;-71
2021/12/05 12:25:08;;;;;;;3.03;1.23;;;;;;;;;;5077725;28;20515;-71
2021/12/05 12:27:35;;;;;;;0.90;0.80;;;;;;;;;;5091419;28;20484;-70
2021/12/05 12:30:08;;;;;;;0.80;0.80;;;;;;;;;;5086386;28;20950;-72
2021/12/05 12:32:38;;;;;;;1.43;1.33;;;;;;;;;;5072323;28;20430;-72
2021/12/05 12:35:07;;;;;;;2.10;1.60;;;;;;;;;;5070707;28;20477;-70
2021/12/05 12:37:53;;;;;;;4.07;1.30;;;;;;;;;;5069798;28;20897;-72
2021/12/05 12:40:32;;;;;;;1.40;1.10;;;;;;;;;;5061690;28;20512;-72
2021/12/05 12:42:59;;;;;;;4.80;1.30;;;;;;;;;;5069725;28;20834;-71
2021/12/05 12:45:28;;;;;;;2.40;1.20;;;;;;;;;;5056721;28;20509;-72
2021/12/05 12:47:58;;;;;;;1.07;0.90;;;;;;;;;;5069425;28;20495;-71
2021/12/05 12:50:35;;;;;;;2.10;0.80;;;;;;;;;;5068255;28;20456;-71
2021/12/05 12:53:07;;;;;;;1.80;1.37;;;;;;;;;;5064912;28;20446;-70
2021/12/05 12:55:36;;;;;;;3.17;1.27;;;;;;;;;;5049738;28;20477;-72
2021/12/05 12:58:05;;;;;;;2.00;0.80;;;;;;;;;;5065118;28;20926;-71
2021/12/05 13:00:35;;;;;;;1.93;0.80;;;;;;;;;;5057057;28;20445;-75
2021/12/05 13:03:25;;;;;;;2.77;0.80;;;;;;;;;;5060374;28;20434;-74
2021/12/05 13:11:22;;;;;;;1.77;1.03;;;;;;;;;;5049899;28;20414;-73
2021/12/05 13:13:59;;;;;;;2.83;1.27;;;;;;;;;;5049953;28;20838;-71
2021/12/05 13:16:32;;;;;;;1.10;1.00;;;;;;;;;;5068285;28;20442;-74
2021/12/05 13:19:01;;;;;;;1.47;0.83;;;;;;;;;;5068984;28;20433;-73
2021/12/05 13:21:31;;;;;;;2.63;0.93;;;;;;;;;;5054750;28;20928;-73
2021/12/05 13:23:58;;;;;;;0.97;0.70;;;;;;;;;;5068975;28;20826;-73
2021/12/05 13:26:28;;;;;;;1.60;0.80;;;;;;;;;;5061162;28;21027;-72
2021/12/05 13:28:57;;;;;;;3.20;0.80;;;;;;;;;;5060326;28;20473;-71
2021/12/05 13:31:40;;;;;;;6.13;1.50;;;;;;;;;;5054037;28;20442;-73
2021/12/05 13:34:26;;;;;;;1.67;1.13;;;;;;;;;;5057808;28;20439;-71
2021/12/05 13:36:55;;;;;;;0.83;0.70;;;;;;;;;;5055279;28;20510;-72
2021/12/05 13:39:34;;;;;;;0.90;0.50;;;;;;;;;;5049541;28;20485;-73
2021/12/05 13:42:02;;;;;;;1.47;0.80;;;;;;;;;;5048806;28;20529;-72
2021/12/05 13:44:44;;;;;;;0.80;0.60;;;;;;;;;;5067705;28;20560;-72
2021/12/05 13:47:18;;;;;;;1.57;0.90;;;;;;;;;;5051646;28;20453;-72
2021/12/05 13:49:47;;;;;;;1.13;0.70;;;;;;;;;;5061222;28;20537;-73
2021/12/05 13:52:30;;;;;;;1.40;0.97;;;;;;;;;;5068647;28;20457;-73
2021/12/05 13:55:13;;;;;;;2.70;0.70;;;;;;;;;;5068410;28;20909;-72
2021/12/05 13:57:40;;;;;;;1.37;1.20;;;;;;;;;;5054109;28;20493;-72
2021/12/05 14:00:28;;;;;;;2.30;1.53;;;;;;;;;;5050167;28;20774;-70
2021/12/05 14:02:56;;;;;;;1.10;0.97;;;;;;;;;;5048335;28;20438;-71
2021/12/05 14:05:30;;;;;;;2.27;0.87;;;;;;;;;;5049188;28;20547;-71
2021/12/05 14:07:58;;;;;;;3.33;1.20;;;;;;;;;;5048480;28;20449;-71
2021/12/05 14:10:26;;;;;;;3.50;1.60;;;;;;;;;;5048683;28;20446;-72
2021/12/05 14:12:53;;;;;;;2.30;1.13;;;;;;;;;;5054877;28;20464;-71
2021/12/05 14:15:20;;;;;;;4.27;1.50;;;;;;;;;;5068251;28;20877;-72
2021/12/05 14:17:50;;;;;;;2.40;1.40;;;;;;;;;;5068258;28;21047;-71
2021/12/05 14:20:20;;;;;;;2.83;1.27;;;;;;;;;;5058645;28;20528;-71
2021/12/05 14:22:48;;;;;;;2.10;1.20;;;;;;;;;;5060013;28;20562;-71
2021/12/05 14:25:17;;;;;;;3.67;1.30;;;;;;;;;;5058996;28;20484;-70
2021/12/05 14:27:46;;;;;;;1.73;1.20;;;;;;;;;;5068907;28;20802;-74
2021/12/05 14:30:16;;;;;;;2.00;1.20;;;;;;;;;;5048435;28;20525;-70
2021/12/05 14:32:46;;;;;;;1.67;0.80;;;;;;;;;;5048494;28;20452;-71
2021/12/05 14:35:15;;;;;;;1.07;0.70;;;;;;;;;;5048487;28;20538;-71
2021/12/05 14:37:45;;;;;;;2.80;1.60;;;;;;;;;;5049783;28;20462;-71
2021/12/05 14:40:13;;;;;;;1.77;1.30;;;;;;;;;;5047967;28;21002;-72
2021/12/05 14:42:45;;;;;;;1.73;0.90;;;;;;;;;;5048436;28;20487;-74
2021/12/05 14:45:14;;;;;;;1.37;1.10;;;;;;;;;;5059436;28;20560;-75
2021/12/05 14:47:42;;;;;;;1.67;1.03;;;;;;;;;;5068359;28;20984;-78
2021/12/05 14:50:12;;;;;;;3.37;1.60;;;;;;;;;;5059872;28;20450;-77
2021/12/05 14:52:40;;;;;;;3.50;2.50;;;;;;;;;;5067742;28;20536;-77
2021/12/05 14:55:10;;;;;;;2.77;2.00;;;;;;;;;;5061034;28;20446;-76
2021/12/05 14:57:41;;;;;;;5.67;1.73;;;;;;;;;;5053103;28;20997;-76
2021/12/05 15:00:10;;;;;;;3.07;1.60;;;;;;;;;;5065110;28;20490;-77
2021/12/05 15:02:37;;;;;;;2.77;1.70;;;;;;;;;;5070285;28;20448;-75
2021/12/05 15:05:05;;;;;;;4.70;2.10;;;;;;;;;;5061115;28;20440;-76
2021/12/05 15:07:33;;;;;;;2.27;1.70;;;;;;;;;;5052864;28;20450;-76
2021/12/05 15:10:00;;;;;;;5.50;1.80;;;;;;;;;;5058026;28;20441;-76
2021/12/05 15:12:29;;;;;;;5.83;2.47;;;;;;;;;;5070560;28;20444;-78
2021/12/05 15:14:58;;;;;;;2.83;1.63;;;;;;;;;;5088565;28;20477;-73
2021/12/05 15:17:27;;;;;;;3.10;2.33;;;;;;;;;;5082780;28;20429;-70
2021/12/05 15:19:55;;;;;;;4.70;2.40;;;;;;;;;;5079559;28;20454;-73
2021/12/05 15:22:22;;;;;;;3.40;2.33;;;;;;;;;;5071149;28;21013;-76
2021/12/05 15:24:51;;;;;;;4.90;2.10;;;;;;;;;;5072737;28;20443;-78
2021/12/05 15:27:19;;;;;;;2.67;1.83;;;;;;;;;;5053804;28;20488;-75
2021/12/05 15:29:49;;;;;;;1.90;1.53;;;;;;;;;;5051999;28;20437;-77
2021/12/05 15:32:18;;;;;;;2.80;1.60;;;;;;;;;;5050878;28;20454;-75
2021/12/05 15:34:46;;;;;;;2.83;1.90;;;;;;;;;;5063617;28;20844;-76
2021/12/05 15:37:14;;;;;;;3.33;1.80;;;;;;;;;;5058161;28;20465;-76
2021/12/05 15:39:43;;;;;;;2.80;1.50;;;;;;;;;;5051888;28;20438;-77
2021/12/05 15:42:16;;;;;;;4.20;1.83;;;;;;;;;;5063507;28;20468;-78
2021/12/05 15:44:43;;;;;;;2.70;2.27;;;;;;;;;;5071620;28;20469;-78
2021/12/05 15:47:14;;;;;;;2.90;2.20;;;;;;;;;;5070195;28;20575;-77
2021/12/05 15:49:53;;;;;;;3.00;2.10;;;;;;;;;;5057534;28;20450;-75
2021/12/05 15:52:22;;;;;;;2.77;2.40;;;;;;;;;;5071209;28;20469;-78
2021/12/05 15:54:49;;;;;;;4.60;2.40;;;;;;;;;;5070941;28;20444;-78
2021/12/05 15:57:23;;;;;;;6.40;3.50;;;;;;;;;;5069844;28;20528;-77
2021/12/05 15:59:50;;;;;;;4.23;2.70;;;;;;;;;;5065378;28;20438;-75
2021/12/05 16:02:19;;;;;;;3.47;1.70;;;;;;;;;;5070671;28;20468;-77
2021/12/05 16:04:47;;;;;;;3.67;2.70;;;;;;;;;;5056430;28;20474;-77
2021/12/05 16:07:14;;;;;;;2.63;2.43;;;;;;;;;;5060330;28;20500;-76
2021/12/05 16:09:42;;;;;;;3.07;2.00;;;;;;;;;;5065404;28;20442;-77
2021/12/05 16:12:11;;;;;;;5.20;2.00;;;;;;;;;;5066261;28;20446;-76
2021/12/05 16:14:42;;;;;;;3.77;2.03;;;;;;;;;;5070316;28;20550;-76
2021/12/05 16:17:21;;;;;;;3.40;2.20;;;;;;;;;;5070640;28;20508;-76
2021/12/05 16:20:08;;;;;;;3.00;1.93;;;;;;;;;;5064996;28;20809;-76
2021/12/05 16:22:52;;;;;;;4.40;2.30;;;;;;;;;;5065132;28;20443;-76
2021/12/05 16:25:19;;;;;;;2.60;2.00;;;;;;;;;;5068166;28;20442;-73
2021/12/05 16:27:50;;;;;;;3.10;2.40;;;;;;;;;;5071156;28;20579;-74
2021/12/05 16:30:23;;;;;;;2.50;2.30;;;;;;;;;;5070737;28;20765;-75
2021/12/05 16:32:52;;;;;;;5.00;3.17;;;;;;;;;;5065315;28;20445;-75
2021/12/05 16:35:27;;;;;;;5.27;2.70;;;;;;;;;;5062022;28;20477;-73
2021/12/05 16:37:54;;;;;;;8.80;3.60;;;;;;;;;;5056314;28;20448;-75
2021/12/05 16:40:22;;;;;;;7.20;3.57;;;;;;;;;;5056103;28;20454;-74
2021/12/05 16:42:49;;;;;;;6.53;3.50;;;;;;;;;;5050910;28;20484;-75
2021/12/05 16:45:16;;;;;;;4.17;3.10;;;;;;;;;;5057922;28;20525;-74
2021/12/05 16:47:45;;;;;;;3.20;2.17;;;;;;;;;;5052072;28;20927;-74
2021/12/05 16:50:14;;;;;;;5.53;2.50;;;;;;;;;;5054672;28;20450;-74
2021/12/05 16:52:46;;;;;;;4.17;3.00;;;;;;;;;;5067678;28;20450;-76
2021/12/05 16:55:22;;;;;;;4.83;3.33;;;;;;;;;;5055734;28;20442;-78
2021/12/05 16:57:57;;;;;;;6.73;3.70;;;;;;;;;;5062830;28;20452;-79
2021/12/05 17:00:25;;;;;;;4.87;3.30;;;;;;;;;;5050232;28;20430;-77
2021/12/05 17:02:53;;;;;;;4.33;2.40;;;;;;;;;;5060807;28;20477;-76
2021/12/05 17:05:24;;;;;;;5.80;2.90;;;;;;;;;;5049666;28;20848;-76
2021/12/05 17:07:57;;;;;;;6.60;3.10;;;;;;;;;;5049119;28;20466;-73
2021/12/05 17:10:32;;;;;;;6.27;3.00;;;;;;;;;;5058043;28;21180;-78
2021/12/05 17:13:06;;;;;;;5.30;3.33;;;;;;;;;;5069898;28;20475;-73
2021/12/05 17:15:34;;;;;;;3.70;2.40;;;;;;;;;;5056469;28;20529;-75
2021/12/05 17:18:03;;;;;;;5.30;2.83;;;;;;;;;;5049726;28;20546;-76
2021/12/05 17:20:33;;;;;;;7.30;3.00;;;;;;;;;;5059863;28;20511;-77
2021/12/05 17:23:02;;;;;;;3.27;2.87;;;;;;;;;;5070780;28;20568;-77
2021/12/05 17:25:31;;;;;;;8.10;3.33;;;;;;;;;;5062166;28;20559;-79
2021/12/05 17:27:58;;;;;;;4.73;3.20;;;;;;;;;;5050983;28;20478;-76
2021/12/05 17:30:25;;;;;;;4.87;2.73;;;;;;;;;;5060474;28;20441;-79
2021/12/05 17:32:52;;;;;;;8.07;4.10;;;;;;;;;;5069773;28;21024;-78
2021/12/05 17:35:20;;;;;;;6.37;4.03;;;;;;;;;;5063569;28;21812;-76
2021/12/05 17:37:50;;;;;;;4.33;2.67;;;;;;;;;;5063370;28;20451;-75
2021/12/05 17:40:17;;;;;;;4.60;4.00;;;;;;;;;;5048731;28;20974;-77
2021/12/05 17:42:44;;;;;;;5.30;3.60;;;4.90;1.00;;;;;;5063274;28;20441;-75
2021/12/05 17:45:14;;;;;;;4.77;2.80;;;4.50;1.00;;;;;;5068978;28;20437;-76
2021/12/05 17:47:42;;;;;;;5.40;3.67;;;4.40;2.60;;;;;;5069859;28;20563;-77
2021/12/05 17:50:12;;;;;;;5.30;3.23;;;4.30;99.90;;;;;;5060751;28;20445;-75
2021/12/05 17:52:39;;;;;;;4.60;3.37;;;4.40;99.90;;;;;;5059401;28;20443;-77
2021/12/05 17:55:18;;;;;;;6.60;3.90;;;4.30;75.90;;;;;;5060022;28;20440;-74
2021/12/05 17:57:51;;;;;;;4.07;3.20;;;4.10;99.90;;;;;;5065452;28;20441;-74
2021/12/05 18:00:34;;;;;;;10.27;4.20;;;4.10;99.90;;;;;;5056515;28;20802;-77
2021/12/05 18:03:03;;;;;;;5.10;3.30;;;4.10;99.90;;;;;;5068334;28;20497;-76
2021/12/05 18:05:35;;;;;;;5.43;3.40;;;4.00;99.90;;;;;;5053779;28;20524;-74
2021/12/05 18:08:05;;;;;;;3.40;2.57;;;3.90;99.90;;;;;;5064240;28;20552;-73
2021/12/05 18:10:36;;;;;;;6.13;4.00;;;3.90;99.90;;;;;;5069349;28;20453;-73
2021/12/05 18:13:05;;;;;;;5.53;3.20;;;3.80;99.90;;;;;;5069390;28;20456;-74
2021/12/05 18:15:36;;;;;;;3.37;3.00;;;3.80;99.90;;;;;;5074643;28;20445;-75
2021/12/05 18:18:06;;;;;;;8.33;2.90;;;3.90;99.90;;;;;;5071772;28;20445;-74
2021/12/05 18:20:36;;;;;;;3.60;3.20;;;3.80;99.90;;;;;;5062734;28;20434;-74
2021/12/05 18:23:06;;;;;;;6.47;3.17;;;3.80;99.90;;;;;;5068302;28;20837;-75
2021/12/05 18:25:36;;;;;;;4.03;3.23;;;3.70;99.90;;;;;;5064467;28;20445;-74
2021/12/05 18:28:04;;;;;;;4.37;3.33;;;3.70;99.90;;;;;;5059933;28;20961;-75
2021/12/05 18:30:31;;;;;;;4.10;3.40;;;3.70;99.90;;;;;;5059883;28;20538;-74
2021/12/05 18:33:01;;;;;;;6.60;3.60;;;3.70;99.90;;;;;;5066217;28;20772;-75
2021/12/05 18:35:31;;;;;;;6.53;3.77;;;3.70;99.90;;;;;;5064755;28;20440;-76
2021/12/05 18:38:00;;;;;;;3.03;2.50;;;3.90;99.90;;;;;;5064773;28;20469;-76
2021/12/05 18:40:28;;;;;;;3.03;2.80;;;4.10;99.90;;;;;;5062012;28;20783;-78
2021/12/05 18:42:57;;;;;;;3.33;2.50;;;3.80;99.90;;;;;;5049322;28;20477;-78
2021/12/05 18:45:27;;;;;;;4.27;2.63;;;4.00;99.90;;;;;;5057965;28;20440;-76
2021/12/05 18:47:54;;;;;;;5.67;3.23;;;4.10;99.90;;;;;;5068990;28;21082;-81
2021/12/05 18:50:22;;;;;;;4.13;2.90;;;4.00;91.00;;;;;;5059119;28;20442;-80
2021/12/05 18:52:48;;;;;;;4.00;2.93;;;4.00;99.90;;;;;;5065475;28;20445;-81
2021/12/05 18:55:18;;;;;;;4.23;3.37;;;3.80;99.90;;;;;;5068608;28;20531;-81